Time;durP1;ratioP1;P1;durP2;ratioP2;P2;SDS_P1;SDS_P2;PMS_P1;PMS_P2;Temp;Humidity;BMP_temperature;BMP_pressure;BME280_temperature;BME280_humidity;BME280_pressure;Samples;Min_cycle;Max_cycle;Signal;HPM_P1;HPM_P2
2022/03/13 00:01:21;;;;;;;23.85;13.90;;;3.00;1.00;;;2.79;39.83;101771.59;4963183;29;20235;-74
2022/03/13 00:03:50;;;;;;;18.15;13.70;;;3.00;1.00;;;2.85;39.16;101771.09;4971342;29;20180;-70
2022/03/13 00:06:33;;;;;;;20.67;15.10;;;3.00;1.00;;;2.84;39.66;101769.38;4973450;29;20174;-71
2022/03/13 00:09:05;;;;;;;19.65;13.60;;;3.00;1.00;;;3.00;38.86;101767.06;4972297;28;20236;-70
2022/03/13 00:11:34;;;;;;;21.13;14.07;;;3.10;1.00;;;2.84;39.13;101765.84;4964482;29;20222;-71
2022/03/13 00:14:05;;;;;;;17.48;13.93;;;3.00;1.00;;;2.67;39.42;101761.94;4957868;29;20527;-71
2022/03/13 00:16:34;;;;;;;23.23;16.77;;;2.90;1.00;;;2.80;39.40;101757.25;4958044;29;20172;-70
2022/03/13 00:19:06;;;;;;;24.55;15.20;;;2.90;1.00;;;2.69;39.48;101762.66;4960637;28;20231;-72
2022/03/13 00:21:43;;;;;;;19.95;14.70;;;2.90;1.00;;;2.55;40.06;101763.00;4963455;29;20180;-71
2022/03/13 00:24:14;;;;;;;19.38;14.10;;;2.80;1.00;;;2.55;40.12;101768.34;4955112;29;20267;-71
2022/03/13 00:26:42;;;;;;;21.52;15.57;;;2.70;1.00;;;2.54;40.19;101770.16;4954362;29;20659;-71
2022/03/13 00:29:11;;;;;;;18.77;14.98;;;2.70;1.00;;;2.38;40.20;101764.38;4954199;28;20200;-71
2022/03/13 00:31:40;;;;;;;20.02;14.75;;;2.60;1.00;;;2.56;39.68;101767.38;4953732;29;20235;-72
2022/03/13 00:34:14;;;;;;;21.02;14.35;;;2.70;1.00;;;2.65;39.65;101763.91;4954092;29;20195;-71
2022/03/13 00:36:43;;;;;;;19.83;14.55;;;2.70;1.00;;;2.53;39.83;101759.59;4953711;29;20300;-71
2022/03/13 00:39:14;;;;;;;26.25;15.52;;;2.70;1.00;;;2.56;39.40;101749.50;4953653;28;20230;-73
2022/03/13 00:41:46;;;;;;;24.98;15.13;;;2.70;1.00;;;2.58;39.56;101755.56;4953035;29;20196;-72
2022/03/13 00:44:15;;;;;;;21.70;13.27;;;2.70;1.00;;;2.56;39.23;101754.84;4955030;29;20636;-73
2022/03/13 00:46:45;;;;;;;21.00;13.82;;;2.70;1.00;;;2.47;39.35;101752.09;4955045;29;20227;-71
2022/03/13 00:49:14;;;;;;;18.88;13.30;;;2.60;1.00;;;2.39;39.97;101759.91;4955580;28;20223;-74
2022/03/13 00:51:44;;;;;;;21.52;14.60;;;2.60;1.00;;;2.30;39.81;101758.84;4956114;29;20216;-72
2022/03/13 00:54:14;;;;;;;18.17;13.30;;;2.50;1.00;;;2.40;39.63;101758.94;4956515;29;20181;-73
2022/03/13 00:56:43;;;;;;;25.52;13.73;;;2.50;1.00;;;2.28;39.90;101765.28;4956511;29;20176;-71
2022/03/13 00:59:13;;;;;;;19.90;13.20;;;2.50;1.00;;;2.14;39.96;101769.09;4962397;28;20208;-72
2022/03/13 01:01:42;;;;;;;17.08;11.68;;;2.40;1.00;;;2.08;40.19;101767.78;4967765;29;20184;-70
2022/03/13 01:04:14;;;;;;;21.50;14.00;;;2.30;1.00;;;2.13;39.73;101762.09;4968652;29;20240;-70
2022/03/13 01:06:45;;;;;;;17.70;12.30;;;2.30;1.00;;;2.14;39.65;101758.41;4968879;29;20211;-70
2022/03/13 01:09:16;;;;;;;15.07;11.90;;;2.30;1.00;;;2.14;39.51;101753.94;4967450;28;20291;-69
2022/03/13 01:11:46;;;;;;;16.77;11.95;;;2.30;1.00;;;2.15;39.42;101760.13;4963370;28;20226;-72
2022/03/13 01:14:17;;;;;;;18.83;13.52;;;2.30;1.00;;;2.09;39.54;101753.47;4962632;29;20613;-73
2022/03/13 01:16:47;;;;;;;20.63;12.80;;;2.30;1.00;;;2.13;39.42;101756.75;4962658;29;20210;-73
2022/03/13 01:19:16;;;;;;;20.10;13.00;;;2.30;1.00;;;2.08;39.46;101749.09;4962557;28;20243;-73
2022/03/13 01:21:45;;;;;;;22.48;13.98;;;2.20;1.00;;;2.06;39.40;101748.38;4960887;29;20188;-71
2022/03/13 01:24:30;;;;;;;25.10;17.45;;;2.20;1.00;;;2.18;39.08;101750.03;4960861;29;20651;-73
2022/03/13 01:27:03;;;;;;;21.80;13.55;;;2.20;1.00;;;2.12;39.02;101747.88;4961494;29;20538;-71
2022/03/13 01:29:34;;;;;;;20.60;12.85;;;2.30;1.00;;;2.08;39.14;101749.09;4961705;28;20216;-72
2022/03/13 01:32:04;;;;;;;20.88;14.73;;;2.20;1.00;;;2.15;39.19;101742.28;4961342;29;20213;-70
2022/03/13 01:34:51;;;;;;;16.02;12.80;;;2.30;1.00;;;1.90;39.47;101742.59;4960701;29;20188;-73
2022/03/13 01:37:33;;;;;;;17.20;12.23;;;2.20;1.00;;;1.81;39.42;101746.03;4960636;29;20179;-73
2022/03/13 01:40:10;;;;;;;20.77;14.27;;;2.10;1.00;;;1.85;39.65;101749.28;4957905;28;20250;-72
2022/03/13 01:42:41;;;;;;;23.17;12.68;;;2.00;1.00;;;1.96;39.36;101741.25;4957359;29;20187;-70
2022/03/13 01:45:14;;;;;;;18.23;12.95;;;2.00;1.00;;;2.07;39.04;101742.06;4956425;29;20199;-72
2022/03/13 01:47:43;;;;;;;19.05;13.25;;;2.10;1.00;;;2.11;38.64;101738.16;4957881;29;20181;-71
2022/03/13 01:50:13;;;;;;;20.90;14.77;;;2.10;1.00;;;2.00;39.07;101740.03;4957743;28;20204;-70
2022/03/13 01:52:47;;;;;;;21.23;13.55;;;2.10;1.00;;;1.88;39.20;101741.03;4957017;29;20199;-72
2022/03/13 01:55:18;;;;;;;21.23;13.88;;;2.10;1.00;;;1.98;39.12;101740.16;4957716;29;20538;-71
2022/03/13 01:57:47;;;;;;;19.52;15.25;;;2.10;1.00;;;1.95;39.18;101748.41;4957243;29;20211;-70
2022/03/13 02:00:20;;;;;;;23.25;14.57;;;2.10;1.00;;;1.90;39.28;101750.59;4955286;28;20255;-70
2022/03/13 02:02:50;;;;;;;20.35;15.05;;;2.00;1.00;;;1.72;39.58;101746.78;4956610;29;20177;-71
2022/03/13 02:05:30;;;;;;;17.88;13.23;;;2.00;1.00;;;1.67;39.81;101743.63;4956461;29;20189;-71
2022/03/13 02:08:01;;;;;;;16.25;12.55;;;1.80;1.00;;;1.64;39.60;101743.88;4938915;29;20192;-72
2022/03/13 02:10:33;;;;;;;19.95;14.15;;;1.80;1.00;;;1.70;39.49;101740.69;4956027;28;20208;-71
2022/03/13 02:13:02;;;;;;;20.63;14.52;;;1.90;1.00;;;1.74;39.46;101734.16;4955555;29;20585;-71
2022/03/13 02:15:34;;;;;;;19.33;12.70;;;1.80;1.00;;;1.74;39.29;101736.84;4955974;29;20192;-71
2022/03/13 02:18:07;;;;;;;18.48;13.02;;;1.90;1.00;;;1.75;39.44;101733.16;4954867;29;20199;-73
2022/03/13 02:20:41;;;;;;;16.85;13.43;;;1.90;1.00;;;1.73;39.41;101737.81;4955779;28;20211;-71
2022/03/13 02:23:21;;;;;;;16.38;11.35;;;1.90;1.00;;;1.72;39.60;101736.09;4955116;29;20176;-70
2022/03/13 02:25:52;;;;;;;15.93;12.05;;;1.90;1.00;;;1.54;40.06;101730.44;4955770;29;20180;-72
2022/03/13 02:28:25;;;;;;;18.55;13.43;;;1.80;1.00;;;1.66;39.56;101725.91;4955940;29;20612;-72
2022/03/13 02:31:02;;;;;;;17.05;12.85;;;1.80;1.00;;;1.56;39.97;101731.16;4955219;28;20219;-71
2022/03/13 02:33:33;;;;;;;23.85;14.68;;;1.80;1.00;;;1.58;39.47;101731.88;4955952;29;20678;-71
2022/03/13 02:36:24;;;;;;;16.60;12.52;;;1.70;1.00;;;1.70;39.38;101732.69;4955763;29;20188;-71
2022/03/13 02:38:55;;;;;;;18.75;13.15;;;1.80;1.00;;;1.57;39.65;101740.84;4939785;28;20271;-70
2022/03/13 02:41:26;;;;;;;22.83;14.05;;;1.70;1.00;;;1.57;39.84;101738.19;4956994;29;20213;-73
2022/03/13 02:43:55;;;;;;;15.88;14.07;;;1.70;1.00;;;1.51;40.07;101737.81;4960351;29;20654;-71
2022/03/13 02:46:54;;;;;;;20.90;14.23;;;1.70;1.00;;;1.43;40.20;101738.44;4961069;29;20176;-72
2022/03/13 02:49:25;;;;;;;19.02;13.65;;;1.60;1.00;;;1.49;40.32;101739.78;4963591;28;20215;-70
2022/03/13 02:51:58;;;;;;;20.23;12.98;;;1.60;1.00;;;1.38;40.52;101735.31;4962213;29;20224;-72
2022/03/13 02:54:29;;;;;;;17.95;13.85;;;1.50;1.00;;;1.30;40.49;101743.06;4957097;29;20176;-72
2022/03/13 02:56:59;;;;;;;19.38;12.90;;;1.50;1.00;;;1.38;40.27;101732.63;4956316;29;20243;-71
2022/03/13 02:59:29;;;;;;;19.33;12.65;;;1.50;1.00;;;1.33;40.68;101744.63;4957700;28;20212;-70
2022/03/13 03:01:58;;;;;;;16.85;12.63;;;1.50;1.00;;;1.30;40.67;101737.75;4955404;29;20177;-70
2022/03/13 03:04:27;;;;;;;23.10;13.85;;;1.50;1.00;;;1.24;40.84;101740.88;4955432;29;20187;-71
2022/03/13 03:07:00;;;;;;;20.92;12.93;;;1.40;1.00;;;1.27;40.57;101738.81;4955247;29;20179;-70
2022/03/13 03:09:33;;;;;;;21.10;12.60;;;1.40;1.00;;;1.42;40.10;101738.56;4955754;28;20212;-72
2022/03/13 03:12:06;;;;;;;20.58;15.10;;;1.40;1.00;;;1.28;40.48;101737.00;4943006;29;20223;-70
2022/03/13 03:14:36;;;;;;;22.80;13.48;;;1.40;1.00;;;1.33;40.62;101739.31;4958397;29;20539;-70
2022/03/13 03:17:05;;;;;;;19.02;13.80;;;1.40;1.00;;;1.29;40.27;101734.22;4962353;29;20172;-71
2022/03/13 03:19:34;;;;;;;26.85;14.15;;;1.40;1.00;;;1.23;40.69;101739.19;4957412;28;20771;-71
2022/03/13 03:22:04;;;;;;;18.25;13.13;;;1.40;1.00;;;1.20;40.50;101740.28;4955004;29;20216;-71
2022/03/13 03:24:34;;;;;;;29.73;13.93;;;1.40;1.00;;;1.25;40.75;101738.09;4955578;29;20236;-72
2022/03/13 03:27:04;;;;;;;15.15;11.38;;;1.40;1.00;;;1.34;40.33;101741.00;4955096;29;20184;-72
2022/03/13 03:29:33;;;;;;;20.48;12.90;;;1.40;1.00;;;1.20;40.67;101734.97;4954732;28;20598;-72
2022/03/13 03:32:02;;;;;;;22.33;14.70;;;1.40;1.00;;;1.30;40.28;101735.94;4937508;29;20220;-70
2022/03/13 03:34:31;;;;;;;21.83;14.63;;;1.40;1.00;;;1.25;40.00;101727.44;4955056;28;20612;-72
2022/03/13 03:37:02;;;;;;;20.40;13.32;;;1.40;1.00;;;1.25;40.25;101732.78;4955230;29;20236;-73
2022/03/13 03:39:34;;;;;;;21.02;13.98;;;1.40;1.00;;;1.30;40.14;101730.59;4955041;28;20236;-72
2022/03/13 03:42:04;;;;;;;24.20;15.80;;;1.40;1.00;;;1.37;40.13;101730.06;4954472;29;20172;-70
2022/03/13 03:44:32;;;;;;;20.30;12.65;;;1.40;1.00;;;1.27;40.10;101727.28;4954650;29;20200;-70
2022/03/13 03:47:02;;;;;;;20.98;13.75;;;1.40;1.00;;;1.27;39.92;101725.47;4954334;29;20211;-71
2022/03/13 03:49:31;;;;;;;18.60;13.50;;;1.40;1.00;;;1.26;39.93;101722.94;4954053;28;20208;-70
2022/03/13 03:52:00;;;;;;;24.40;12.68;;;1.40;1.00;;;1.33;39.95;101717.97;4954051;29;20218;-71
2022/03/13 03:54:29;;;;;;;22.13;14.40;;;1.40;1.00;;;1.29;39.87;101726.22;4953798;29;20223;-70
2022/03/13 03:56:59;;;;;;;20.92;13.63;;;1.40;1.00;;;1.43;39.38;101729.59;5081744;23;20267;-71
2022/03/13 03:59:28;;;;;;;18.02;12.00;;;1.50;1.00;;;1.38;39.38;101732.63;4974657;28;20275;-71
2022/03/13 04:01:57;;;;;;;17.50;13.55;;;1.50;1.00;;;1.38;39.03;101721.97;4963724;28;20243;-71
2022/03/13 04:04:27;;;;;;;22.30;13.35;;;1.50;1.00;;;1.37;38.84;101727.41;4955311;29;20176;-71
2022/03/13 04:06:58;;;;;;;19.85;14.45;;;1.50;1.00;;;1.37;39.29;101728.25;4937800;29;20188;-70
2022/03/13 04:12:32;;;;;;;16.05;11.10;;;1.50;1.00;;;1.27;39.20;101728.16;4912906;29;20220;-69
2022/03/13 04:15:01;;;;;;;17.80;12.90;;;1.40;1.00;;;1.31;39.03;101724.25;4916203;29;20233;-69
2022/03/13 04:17:32;;;;;;;19.08;11.63;;;1.40;1.00;;;1.30;39.08;101730.59;4915183;29;20174;-69
2022/03/13 04:20:00;;;;;;;20.45;13.00;;;1.40;1.00;;;1.31;39.35;101729.59;4914909;29;20240;-69
2022/03/13 04:22:29;;;;;;;16.48;11.90;;;1.40;1.00;;;1.30;39.45;101729.75;4915722;29;20196;-68
2022/03/13 04:24:58;;;;;;;19.58;13.63;;;1.40;1.00;;;1.23;39.80;101723.19;4916025;29;20225;-68
2022/03/13 04:27:30;;;;;;;15.23;10.98;;;1.40;1.00;;;1.21;39.80;101733.13;4916002;29;20193;-69
2022/03/13 04:30:01;;;;;;;22.75;13.25;;;1.30;1.00;;;1.17;39.36;101729.00;4916352;29;20291;-68
2022/03/13 04:32:30;;;;;;;20.67;13.18;;;1.30;1.00;;;1.22;39.74;101737.47;4915105;29;20249;-69
2022/03/13 04:34:59;;;;;;;23.70;13.40;;;1.30;1.00;;;1.11;39.58;101734.84;4915367;29;20237;-68
2022/03/13 04:37:28;;;;;;;19.65;12.90;;;1.30;1.00;;;1.05;39.76;101730.81;4914713;29;20261;-68
2022/03/13 04:39:57;;;;;;;20.08;11.77;;;1.20;1.00;;;1.00;39.40;101738.34;4915027;29;20692;-68
2022/03/13 04:42:26;;;;;;;16.02;12.32;;;1.20;1.00;;;1.03;40.01;101732.75;4914536;29;20224;-68
2022/03/13 04:44:55;;;;;;;19.83;12.27;;;1.20;1.00;;;1.01;39.98;101732.03;4916529;29;20283;-69
2022/03/13 04:47:31;;;;;;;22.35;13.38;;;1.20;1.00;;;1.13;39.81;101735.53;4919668;29;20206;-68
2022/03/13 04:50:01;;;;;;;20.35;12.05;;;1.20;1.00;;;1.12;39.76;101744.50;4919945;29;20268;-68
2022/03/13 04:52:30;;;;;;;21.10;12.20;;;1.20;1.00;;;1.04;39.77;101744.28;4919221;29;20285;-68
2022/03/13 04:54:58;;;;;;;15.10;11.05;;;1.20;1.00;;;1.00;39.90;101737.47;4917772;29;20563;-68
2022/03/13 04:57:27;;;;;;;18.45;11.85;;;1.20;1.00;;;1.00;39.79;101741.00;4918280;29;20186;-68
2022/03/13 04:59:56;;;;;;;19.48;12.98;;;1.10;1.00;;;0.97;40.21;101737.75;4918418;29;20255;-70
2022/03/13 05:02:27;;;;;;;20.67;12.75;;;1.10;1.00;;;1.04;39.76;101747.78;4918688;29;20202;-69
2022/03/13 05:04:57;;;;;;;15.63;12.40;;;1.10;1.00;;;0.97;39.99;101743.88;4918623;29;20479;-68
2022/03/13 05:07:28;;;;;;;22.08;12.43;;;1.10;1.00;;;0.98;40.11;101745.59;4918370;29;20379;-67
2022/03/13 05:09:57;;;;;;;21.25;11.80;;;1.10;1.00;;;1.00;39.89;101742.81;4918111;29;20225;-70
2022/03/13 05:12:27;;;;;;;21.27;13.15;;;1.10;1.00;;;0.94;40.27;101746.81;4918330;29;20624;-69
2022/03/13 05:14:56;;;;;;;19.15;12.40;;;1.10;1.00;;;0.90;40.15;101747.16;4917736;29;20378;-69
2022/03/13 05:17:26;;;;;;;25.42;14.77;;;1.10;1.00;;;0.85;40.11;101751.03;4918352;29;20241;-69
2022/03/13 05:19:56;;;;;;;14.27;11.68;;;1.00;1.00;;;0.92;40.19;101751.38;4917923;29;20708;-68
2022/03/13 05:22:25;;;;;;;17.15;12.20;;;1.00;1.00;;;0.87;40.43;101743.75;4917727;29;20190;-69
2022/03/13 05:24:57;;;;;;;20.42;12.40;;;1.00;1.00;;;0.96;39.89;101746.69;4917878;29;20174;-70
2022/03/13 05:27:28;;;;;;;18.35;12.00;;;1.10;1.00;;;1.03;40.26;101747.88;4918312;29;20260;-70
2022/03/13 05:29:57;;;;;;;18.73;11.90;;;1.10;1.00;;;1.08;39.72;101751.91;4918700;29;20241;-68
2022/03/13 05:32:27;;;;;;;20.65;13.07;;;1.10;1.00;;;0.96;40.32;101752.88;4919197;29;20645;-68
2022/03/13 05:34:57;;;;;;;20.58;14.07;;;1.10;1.00;;;0.88;40.58;101750.78;4918184;29;20178;-68
2022/03/13 05:37:26;;;;;;;19.95;12.30;;;1.00;1.00;;;0.84;40.64;101754.66;4917462;29;20548;-68
2022/03/13 05:39:55;;;;;;;13.88;11.77;;;1.00;1.00;;;0.87;40.50;101753.59;4919773;29;20209;-69
2022/03/13 05:42:24;;;;;;;21.00;12.32;;;1.00;1.00;;;0.86;40.69;101754.56;4922573;29;20185;-69
2022/03/13 05:44:53;;;;;;;26.23;11.70;;;1.00;1.00;;;0.86;40.47;101757.22;4924810;29;20201;-69
2022/03/13 05:47:23;;;;;;;21.85;14.15;;;1.00;1.00;;;0.99;39.99;101755.28;4923961;29;20534;-68
2022/03/13 05:49:53;;;;;;;16.85;12.43;;;1.00;1.00;;;1.00;40.44;101765.00;4923789;29;20751;-70
2022/03/13 05:52:22;;;;;;;23.95;13.60;;;1.10;1.00;;;1.05;39.97;101764.63;4918009;29;20178;-69
2022/03/13 05:54:51;;;;;;;23.77;12.75;;;1.10;1.00;;;0.97;40.57;101759.88;4919617;29;20272;-68
2022/03/13 05:57:20;;;;;;;16.65;11.68;;;1.10;1.00;;;0.94;40.30;101769.94;4918614;29;20193;-69
2022/03/13 05:59:48;;;;;;;17.92;13.32;;;1.10;1.00;;;0.94;41.08;101768.13;4918002;29;20217;-68
2022/03/13 06:02:17;;;;;;;26.33;14.18;;;1.10;1.00;;;1.02;40.65;101768.38;4916119;29;20202;-69
2022/03/13 06:04:46;;;;;;;23.45;14.70;;;1.10;1.00;;;1.02;40.52;101772.84;4917438;29;20174;-69
2022/03/13 06:07:17;;;;;;;19.20;13.50;;;1.10;1.00;;;1.07;40.63;101771.53;4916987;29;20249;-69
2022/03/13 06:09:46;;;;;;;17.40;13.00;;;1.10;1.00;;;1.12;40.61;101780.00;4916739;29;20210;-68
2022/03/13 06:12:16;;;;;;;21.35;13.73;;;1.20;1.00;;;1.10;40.39;101773.13;4915787;29;20216;-70
2022/03/13 06:32:09;;;;;;;24.63;14.70;;;1.40;1.00;;;1.41;40.02;101785.72;4915594;29;20196;-69
2022/03/13 06:34:38;;;;;;;22.48;14.20;;;1.40;1.00;;;1.45;40.22;101791.69;4915355;29;20204;-68
2022/03/13 06:37:08;;;;;;;24.88;14.35;;;1.50;1.00;;;1.51;39.78;101792.03;4915520;29;20210;-69
2022/03/13 06:39:37;;;;;;;18.40;13.13;;;1.50;1.00;;;1.60;39.47;101791.28;4915299;29;20297;-69
2022/03/13 06:42:06;;;;;;;27.27;17.55;;;1.60;1.00;;;1.66;39.54;101785.47;4915701;29;20687;-70
2022/03/13 06:44:36;;;;;;;32.40;15.85;;;1.70;1.00;;;1.81;39.61;101786.06;4915751;29;20185;-68
2022/03/13 06:47:08;;;;;;;23.38;14.18;;;1.80;1.00;;;1.85;39.37;101782.16;4898401;29;20197;-70
2022/03/13 06:49:37;;;;;;;21.85;14.18;;;1.90;1.00;;;2.00;38.91;101778.25;4915641;29;20212;-68
2022/03/13 06:52:07;;;;;;;24.70;15.32;;;2.00;1.00;;;2.05;39.32;101781.38;4915120;29;20649;-69
2022/03/13 06:54:36;;;;;;;19.90;13.85;;;2.10;1.00;;;2.16;38.28;101784.03;4914979;29;20220;-70
2022/03/13 06:57:05;;;;;;;25.33;15.95;;;2.10;1.00;;;2.32;38.51;101785.44;4914863;29;20178;-68
2022/03/13 06:59:34;;;;;;;18.23;12.13;;;2.20;1.00;;;2.49;37.70;101774.19;4915143;29;20232;-68
2022/03/13 07:02:04;;;;;;;21.05;14.05;;;2.40;1.00;;;2.50;37.55;101779.41;4914960;29;20186;-68
2022/03/13 07:04:34;;;;;;;18.67;13.57;;;2.50;1.00;;;2.61;37.24;101779.34;4915146;29;20200;-68
2022/03/13 07:07:04;;;;;;;17.98;12.40;;;2.60;1.00;;;2.77;36.92;101778.88;4915042;29;20356;-68
2022/03/13 07:09:34;;;;;;;18.67;12.80;;;2.70;1.00;;;2.92;36.32;101788.28;4915180;29;20209;-68
2022/03/13 07:12:05;;;;;;;20.67;13.80;;;2.90;1.00;;;2.95;36.22;101788.00;4874166;29;1238744;-68
2022/03/13 07:14:34;;;;;;;18.50;11.45;;;2.90;1.00;;;3.08;35.73;101786.97;4916721;29;20208;-68
2022/03/13 07:17:04;;;;;;;17.08;12.85;;;3.00;1.00;;;3.05;35.70;101782.72;4915928;29;20189;-68
2022/03/13 07:19:34;;;;;;;18.95;12.68;;;3.00;1.00;;;3.21;35.80;101785.78;4915706;29;20222;-70
2022/03/13 07:22:04;;;;;;;20.48;13.02;;;3.10;1.00;;;3.27;35.67;101779.03;4916543;29;20269;-70
2022/03/13 07:24:33;;;;;;;16.42;12.60;;;3.20;1.00;;;3.43;35.16;101784.75;4916355;29;20166;-69
2022/03/13 07:27:02;;;;;;;18.77;12.57;;;3.30;1.00;;;3.51;34.77;101784.94;4915774;29;20197;-69
2022/03/13 07:29:32;;;;;;;20.55;13.95;;;3.40;1.00;;;3.66;34.56;101783.59;4915903;29;20214;-69
2022/03/13 07:32:01;;;;;;;19.52;12.55;;;3.50;1.00;;;3.71;34.48;101778.66;4915257;29;20186;-69
2022/03/13 07:34:30;;;;;;;19.17;11.65;;;3.60;1.00;;;3.93;33.98;101783.78;4915267;29;20198;-69
2022/03/13 07:37:00;;;;;;;23.88;14.13;;;3.80;1.00;;;3.92;34.18;101783.94;4915042;29;20552;-70
2022/03/13 07:39:29;;;;;;;20.02;13.55;;;3.90;1.00;;;4.09;33.85;101777.06;4917613;28;20220;-68
2022/03/13 07:41:59;;;;;;;17.67;11.52;;;4.00;1.00;;;4.22;33.22;101780.31;4912009;29;20193;-69
2022/03/13 07:44:28;;;;;;;18.27;12.05;;;4.10;1.00;;;4.33;32.86;101769.47;4896542;29;20341;-69
2022/03/13 07:46:57;;;;;;;20.80;13.02;;;4.20;1.00;;;4.43;32.78;101772.13;4913574;29;20177;-67
2022/03/13 07:49:26;;;;;;;15.52;12.27;;;4.30;1.00;;;4.51;32.77;101770.44;4913668;29;20216;-68
2022/03/13 07:51:55;;;;;;;18.55;12.30;;;4.40;1.00;;;4.54;32.53;101774.69;4913725;29;20735;-67
2022/03/13 07:54:26;;;;;;;14.10;11.25;;;4.40;1.00;;;4.68;32.54;101776.94;4913074;29;20312;-69
2022/03/13 07:56:55;;;;;;;18.10;10.60;;;4.50;1.00;;;4.84;32.08;101784.41;4915744;29;20245;-68
2022/03/13 07:59:24;;;;;;;17.17;13.45;;;4.70;1.00;;;4.82;32.26;101780.03;4901038;29;20213;-69
2022/03/13 08:01:53;;;;;;;16.17;12.40;;;4.70;1.00;;;5.03;31.86;101781.69;4915395;29;20192;-70
2022/03/13 08:04:24;;;;;;;16.08;12.35;;;4.90;1.00;;;5.17;31.44;101782.06;4915368;29;20201;-69
2022/03/13 08:06:53;;;;;;;17.23;13.93;;;5.00;1.00;;;5.36;31.38;101789.22;4914367;29;20192;-68
2022/03/13 08:09:22;;;;;;;18.30;11.38;;;5.20;1.00;;;5.19;31.30;101779.22;4913041;29;20613;-70
2022/03/13 08:11:53;;;;;;;13.63;10.65;;;5.10;1.00;;;5.38;31.46;101773.78;4912806;29;20204;-68
2022/03/13 08:14:22;;;;;;;15.82;11.55;;;5.30;1.00;;;5.33;30.87;101777.91;4913323;29;20198;-68
2022/03/13 08:16:52;;;;;;;17.50;11.63;;;5.30;1.00;;;5.47;31.02;101783.63;4913782;29;20641;-70
2022/03/13 08:19:21;;;;;;;19.88;11.48;;;5.30;1.00;;;5.67;30.36;101777.19;4914944;29;20209;-70
2022/03/13 08:21:50;;;;;;;25.10;13.48;;;5.50;1.00;;;5.80;30.38;101766.13;4919551;29;20193;-71
2022/03/13 08:24:20;;;;;;;17.85;12.60;;;5.60;1.00;;;5.93;30.57;101766.63;4919835;29;20182;-68
2022/03/13 08:26:49;;;;;;;14.73;10.93;;;5.70;1.00;;;6.00;30.03;101766.88;4917540;29;20185;-69
2022/03/13 08:29:20;;;;;;;18.00;12.07;;;5.80;1.00;;;6.00;29.59;101766.88;4917197;29;20263;-70
2022/03/13 08:31:49;;;;;;;16.48;11.75;;;5.90;1.00;;;6.15;29.32;101775.28;4916662;29;20185;-71
2022/03/13 08:34:19;;;;;;;15.10;11.05;;;6.00;1.00;;;6.21;29.51;101770.09;4917029;29;20203;-70
2022/03/13 08:36:48;;;;;;;13.00;11.65;;;6.10;1.00;;;6.37;29.75;101774.81;4916243;29;20186;-68
2022/03/13 08:39:17;;;;;;;16.02;11.35;;;6.20;1.00;;;6.57;29.19;101770.13;4916227;29;20764;-69
2022/03/13 08:41:46;;;;;;;15.30;10.43;;;6.40;1.00;;;6.58;28.76;101759.22;4916909;29;20621;-68
2022/03/13 08:44:15;;;;;;;18.27;11.18;;;6.40;1.00;;;6.77;28.66;101760.88;4916693;29;20189;-70
2022/03/13 08:46:45;;;;;;;15.57;11.20;;;6.50;1.00;;;6.65;28.79;101762.97;4916580;29;20189;-68
2022/03/13 08:49:15;;;;;;;12.80;11.35;;;6.60;1.00;;;6.74;28.83;101769.25;4916855;29;20260;-70
2022/03/13 08:51:44;;;;;;;15.60;11.57;;;6.60;1.00;;;6.88;28.50;101757.91;4917274;29;20185;-69
2022/03/13 08:54:16;;;;;;;17.60;10.75;;;6.70;1.00;;;6.94;28.27;101760.81;4917091;29;20208;-69
2022/03/13 08:56:46;;;;;;;15.52;11.57;;;6.80;1.00;;;6.88;28.45;101760.59;4916884;29;20182;-69
2022/03/13 08:59:16;;;;;;;17.08;12.18;;;6.80;1.00;;;6.95;27.99;101749.06;4916925;29;20732;-69
2022/03/13 09:01:48;;;;;;;19.40;12.13;;;6.80;1.00;;;7.10;28.06;101754.72;4917385;29;20216;-70
2022/03/13 09:04:18;;;;;;;14.43;12.02;;;6.90;1.00;;;7.29;27.72;101753.66;4916785;29;20269;-69
2022/03/13 09:06:49;;;;;;;14.27;11.32;;;7.10;1.00;;;7.58;27.69;101755.97;4917139;29;20559;-69
2022/03/13 09:09:20;;;;;;;18.60;12.07;;;7.30;1.00;;;7.53;27.08;101742.16;4916831;29;20279;-69
2022/03/13 09:11:51;;;;;;;13.95;10.70;;;7.30;1.00;;;7.66;26.60;101747.91;4898717;29;20723;-70
2022/03/13 09:14:21;;;;;;;14.73;10.15;;;7.50;1.00;;;7.81;26.11;101757.06;4915634;29;20177;-70
2022/03/13 09:16:52;;;;;;;14.95;9.73;;;7.60;1.00;;;7.77;25.61;101740.41;4916289;29;20177;-71
2022/03/13 09:19:21;;;;;;;15.55;11.45;;;7.70;1.00;;;7.82;25.90;101743.44;4915336;29;20206;-70
2022/03/13 09:21:50;;;;;;;14.73;9.80;;;7.70;1.00;;;7.92;25.88;101737.91;4915488;29;20181;-70
2022/03/13 09:24:19;;;;;;;15.57;9.90;;;7.80;1.00;;;8.13;26.13;101740.97;4915652;29;20196;-68
2022/03/13 09:26:48;;;;;;;12.90;10.38;;;7.90;1.00;;;8.28;25.51;101733.91;4915529;29;20342;-69
2022/03/13 09:29:17;;;;;;;11.55;9.80;;;8.10;1.00;;;8.20;25.21;101746.56;4915499;29;20217;-69
2022/03/13 09:31:46;;;;;;;11.45;10.07;;;8.10;1.00;;;8.46;25.38;101735.66;4915407;29;20221;-69
2022/03/13 09:34:17;;;;;;;17.38;10.70;;;8.20;1.00;;;8.49;24.97;101738.88;4915832;29;20206;-69
2022/03/13 09:36:46;;;;;;;14.35;10.35;;;8.30;1.00;;;8.46;25.07;101746.47;4915537;29;20189;-68
2022/03/13 09:39:15;;;;;;;12.27;8.88;;;8.30;1.00;;;8.50;24.39;101747.81;4919304;29;20222;-69
2022/03/13 09:41:44;;;;;;;12.38;8.73;;;8.30;1.00;;;8.56;24.87;101747.16;4916451;29;20548;-70
2022/03/13 09:44:13;;;;;;;15.05;10.63;;;8.40;1.00;;;8.74;24.55;101750.50;4915243;29;20193;-70
2022/03/13 09:46:42;;;;;;;13.45;10.95;;;8.50;1.00;;;8.76;24.46;101748.50;4908073;29;20182;-68
2022/03/13 09:49:11;;;;;;;15.25;11.10;;;8.50;1.00;;;8.93;24.53;101743.91;4914680;29;20296;-70
2022/03/13 09:51:42;;;;;;;15.23;11.30;;;8.60;1.00;;;8.87;24.39;101745.44;4915126;29;20185;-69
2022/03/13 09:54:11;;;;;;;15.98;10.15;;;8.70;1.00;;;8.95;24.50;101747.28;4915133;29;20182;-70
2022/03/13 09:56:40;;;;;;;14.85;10.20;;;8.80;1.00;;;9.15;24.35;101743.19;4932606;23;20266;-71
2022/03/13 09:59:09;;;;;;;13.45;9.30;;;8.90;1.00;;;9.34;23.96;101741.97;4944138;29;20651;-71
2022/03/13 10:01:38;;;;;;;15.50;11.05;;;9.10;1.00;;;9.16;23.93;101737.63;4953922;29;20199;-72
2022/03/13 10:04:08;;;;;;;14.05;10.52;;;9.00;1.00;;;9.37;23.80;101744.31;4965381;29;20204;-72
2022/03/13 10:07:04;;;;;;;13.30;10.80;;;9.20;1.00;;;9.26;23.52;101737.41;4964181;29;20559;-72
2022/03/13 10:09:34;;;;;;;15.75;10.00;;;9.20;1.00;;;9.46;24.04;101735.16;4961603;28;20211;-72
2022/03/13 10:12:10;;;;;;;13.82;10.30;;;9.20;1.00;;;9.68;23.57;101739.81;4961565;29;20215;-72
2022/03/13 10:15:00;;;;;;;11.95;10.07;;;9.40;1.00;;;9.53;23.63;101731.59;4960526;29;20212;-71
2022/03/13 10:17:32;;;;;;;19.85;10.45;;;9.40;1.00;;;9.65;23.44;101713.13;4955095;29;20202;-71
2022/03/13 10:20:15;;;;;;;11.07;9.23;;;9.40;1.00;;;9.87;23.47;101716.91;4956523;28;20223;-72
2022/03/13 10:22:49;;;;;;;15.73;10.35;;;9.60;1.00;;;10.13;23.37;101711.16;4956823;29;20264;-70
2022/03/13 10:25:31;;;;;;;12.68;9.25;;;9.80;1.00;;;10.34;23.00;101714.09;4955921;29;20168;-71
2022/03/13 10:28:16;;;;;;;14.32;9.60;;;10.00;1.00;;;10.48;22.15;101718.72;4936020;29;20299;-72
2022/03/13 10:30:48;;;;;;;12.60;8.70;;;10.20;1.00;;;10.39;21.82;101706.28;4954164;28;20354;-70
2022/03/13 10:33:18;;;;;;;12.13;10.00;;;10.20;1.00;;;10.62;21.67;101706.25;4951680;29;20254;-70
2022/03/13 10:35:49;;;;;;;10.63;9.35;;;10.30;1.00;;;10.81;21.07;101706.56;4952407;29;20507;-69
2022/03/13 10:38:24;;;;;;;11.40;9.20;;;10.50;1.00;;;10.96;21.62;101700.31;4935075;29;20189;-71
2022/03/13 10:40:56;;;;;;;10.37;8.50;;;10.60;1.00;;;11.11;21.04;101712.03;4953676;28;20476;-71
2022/03/13 10:43:29;;;;;;;9.93;7.57;;;10.80;1.00;;;10.85;20.87;101697.03;4951942;28;20503;-69
2022/03/13 10:45:59;;;;;;;9.20;7.53;;;10.70;1.00;;;10.90;21.10;101697.34;4934103;29;20618;-70
2022/03/13 10:48:33;;;;;;;11.90;8.73;;;10.70;1.00;;;10.97;20.65;101686.59;4951689;29;20172;-70
2022/03/13 10:51:06;;;;;;;9.47;7.40;;;10.70;1.00;;;11.24;20.76;101698.66;4952460;28;20452;-70
2022/03/13 10:53:40;;;;;;;8.40;7.07;;;10.90;1.00;;;11.43;20.75;101695.38;4952004;29;20471;-70
2022/03/13 10:56:12;;;;;;;12.00;7.93;;;11.10;1.00;;;11.54;20.65;101686.78;4952404;29;20451;-70